DRK401 VNKT-VQPR
Flight info
| Callsign | DRK401 |
|---|---|
| Flight time | 0h 48m |
| Altitude | 37000 |
| Route | IGRIS1E KIMTI G348 SUBSU DCT TAKTI DCT PRO |
| Aircraft | A319/M-SDE3FGHIRWY/LB1 |
Departure
| Time | 2026-04-27 11:15 |
|---|---|
| Airport | Tribhuvan International Airport (VNKT) |
Arrival
| Time | 2026-04-27 12:04 |
|---|---|
| Airport | Paro International Airport (VQPR) |
| Time | Latitude | Longitude | Altitude | Speed | Heading |
|---|---|---|---|---|---|
| 2026-04-27 10:52 | 27.69989 | 85.35835 | 4398 ft | 0 kts | 292° |
| 2026-04-27 11:08 | 27.69985 | 85.35846 | 4398 ft | 4 kts | 292° |
| 2026-04-27 11:08 | 27.69975 | 85.35874 | 4398 ft | 4 kts | 292° |
| 2026-04-27 11:08 | 27.69963 | 85.35900 | 4398 ft | 4 kts | 309° |
| 2026-04-27 11:08 | 27.69944 | 85.35918 | 4397 ft | 4 kts | 349° |
| 2026-04-27 11:09 | 27.69928 | 85.35918 | 4397 ft | 1 kts | 21° |
| 2026-04-27 11:09 | 27.69926 | 85.35917 | 4397 ft | 0 kts | 21° |
| 2026-04-27 11:12 | 27.69943 | 85.35924 | 4397 ft | 6 kts | 21° |
| 2026-04-27 11:12 | 27.69995 | 85.35948 | 4397 ft | 10 kts | 21° |
| 2026-04-27 11:12 | 27.70067 | 85.35980 | 4397 ft | 13 kts | 22° |
| 2026-04-27 11:12 | 27.70154 | 85.36020 | 4398 ft | 14 kts | 22° |
| 2026-04-27 11:13 | 27.70256 | 85.36066 | 4398 ft | 18 kts | 22° |
| 2026-04-27 11:13 | 27.70381 | 85.36124 | 4398 ft | 21 kts | 23° |
| 2026-04-27 11:13 | 27.70516 | 85.36186 | 4398 ft | 21 kts | 22° |
| 2026-04-27 11:13 | 27.70584 | 85.36264 | 4399 ft | 14 kts | 70° |
| 2026-04-27 11:14 | 27.70590 | 85.36333 | 4401 ft | 5 kts | 153° |
| 2026-04-27 11:14 | 27.70558 | 85.36325 | 4402 ft | 1 kts | 202° |
| 2026-04-27 11:15 | 27.70516 | 85.36305 | 4403 ft | 28 kts | 202° |
| 2026-04-27 11:15 | 27.70085 | 85.36109 | 4396 ft | 102 kts | 202° |
| 2026-04-27 11:15 | 27.69243 | 85.35725 | 4467 ft | 150 kts | 202° |
| 2026-04-27 11:15 | 27.68296 | 85.35283 | 5150 ft | 147 kts | 203° |
| 2026-04-27 11:16 | 27.67340 | 85.34846 | 5753 ft | 154 kts | 205° |
| 2026-04-27 11:16 | 27.66327 | 85.34258 | 6097 ft | 174 kts | 219° |
| 2026-04-27 11:16 | 27.65462 | 85.33232 | 6414 ft | 195 kts | 239° |
| 2026-04-27 11:16 | 27.64946 | 85.31733 | 6748 ft | 218 kts | 262° |
| 2026-04-27 11:17 | 27.65051 | 85.29953 | 7236 ft | 239 kts | 288° |
| 2026-04-27 11:17 | 27.65906 | 85.28319 | 8021 ft | 249 kts | 312° |
| 2026-04-27 11:17 | 27.67321 | 85.27127 | 8767 ft | 260 kts | 336° |
| 2026-04-27 11:17 | 27.69085 | 85.26633 | 9685 ft | 265 kts | 359° |
| 2026-04-27 11:18 | 27.70908 | 85.26962 | 10532 ft | 271 kts | 21° |
| 2026-04-27 11:18 | 27.72506 | 85.28119 | 11323 ft | 280 kts | 44° |
| 2026-04-27 11:18 | 27.73592 | 85.29978 | 12123 ft | 289 kts | 64° |
| 2026-04-27 11:18 | 27.74431 | 85.32032 | 12915 ft | 296 kts | 64° |
| 2026-04-27 11:19 | 27.75299 | 85.34169 | 13707 ft | 302 kts | 66° |
| 2026-04-27 11:19 | 27.75799 | 85.36488 | 14405 ft | 309 kts | 86° |
| 2026-04-27 11:19 | 27.75581 | 85.38908 | 15169 ft | 314 kts | 106° |
| 2026-04-27 11:19 | 27.74657 | 85.41138 | 15918 ft | 317 kts | 127° |
| 2026-04-27 11:20 | 27.73114 | 85.42904 | 16695 ft | 318 kts | 146° |
| 2026-04-27 11:20 | 27.71153 | 85.44048 | 17498 ft | 319 kts | 158° |
| 2026-04-27 11:20 | 27.69109 | 85.45090 | 18114 ft | 331 kts | 153° |
| 2026-04-27 11:20 | 27.67147 | 85.46551 | 18270 ft | 355 kts | 141° |
| 2026-04-27 11:21 | 27.65366 | 85.48603 | 18390 ft | 379 kts | 127° |
| 2026-04-27 11:21 | 27.63975 | 85.51179 | 18750 ft | 390 kts | 114° |
| 2026-04-27 11:21 | 27.63061 | 85.54085 | 19298 ft | 395 kts | 105° |
| 2026-04-27 11:21 | 27.62281 | 85.57078 | 19915 ft | 400 kts | 105° |
| 2026-04-27 11:22 | 27.61477 | 85.60092 | 20525 ft | 404 kts | 105° |
| 2026-04-27 11:22 | 27.60655 | 85.63142 | 21136 ft | 409 kts | 105° |
| 2026-04-27 11:22 | 27.59821 | 85.66222 | 21755 ft | 413 kts | 105° |
| 2026-04-27 11:22 | 27.58935 | 85.69279 | 22347 ft | 419 kts | 110° |
| 2026-04-27 11:23 | 27.57697 | 85.72273 | 22960 ft | 423 kts | 116° |
| 2026-04-27 11:23 | 27.56376 | 85.75261 | 23558 ft | 428 kts | 115° |
| 2026-04-27 11:23 | 27.55054 | 85.78279 | 24077 ft | 432 kts | 115° |
| 2026-04-27 11:23 | 27.53721 | 85.81326 | 24609 ft | 435 kts | 115° |
| 2026-04-27 11:24 | 27.52424 | 85.84421 | 25059 ft | 438 kts | 111° |
| 2026-04-27 11:24 | 27.51485 | 85.87697 | 25557 ft | 440 kts | 101° |
| 2026-04-27 11:24 | 27.51023 | 85.91051 | 26098 ft | 441 kts | 92° |
| 2026-04-27 11:24 | 27.50894 | 85.94508 | 26633 ft | 443 kts | 90° |
| 2026-04-27 11:25 | 27.50777 | 85.97984 | 27155 ft | 446 kts | 90° |
| 2026-04-27 11:25 | 27.50651 | 86.01490 | 27661 ft | 449 kts | 90° |
| 2026-04-27 11:25 | 27.50518 | 86.05016 | 28169 ft | 452 kts | 90° |
| 2026-04-27 11:25 | 27.50381 | 86.08573 | 28666 ft | 456 kts | 90° |
| 2026-04-27 11:26 | 27.50242 | 86.12149 | 29177 ft | 459 kts | 90° |
| 2026-04-27 11:26 | 27.50100 | 86.15752 | 29686 ft | 462 kts | 90° |
| 2026-04-27 11:26 | 27.49956 | 86.19382 | 30166 ft | 466 kts | 90° |
| 2026-04-27 11:26 | 27.49813 | 86.22997 | 30554 ft | 469 kts | 90° |
| 2026-04-27 11:27 | 27.49601 | 86.26681 | 30911 ft | 475 kts | 95° |
| 2026-04-27 11:27 | 27.48995 | 86.30349 | 31285 ft | 479 kts | 100° |
| 2026-04-27 11:27 | 27.48287 | 86.34033 | 31723 ft | 481 kts | 100° |
| 2026-04-27 11:27 | 27.47579 | 86.37704 | 32308 ft | 480 kts | 100° |
| 2026-04-27 11:28 | 27.46872 | 86.41369 | 32871 ft | 478 kts | 101° |
| 2026-04-27 11:28 | 27.46167 | 86.45024 | 33423 ft | 478 kts | 101° |
| 2026-04-27 11:28 | 27.45462 | 86.48682 | 33960 ft | 477 kts | 101° |
| 2026-04-27 11:28 | 27.44770 | 86.52283 | 34436 ft | 477 kts | 101° |
| 2026-04-27 11:29 | 27.44072 | 86.55926 | 34845 ft | 477 kts | 101° |
| 2026-04-27 11:29 | 27.43370 | 86.59584 | 35254 ft | 478 kts | 101° |
| 2026-04-27 11:29 | 27.42664 | 86.63247 | 35522 ft | 480 kts | 101° |
| 2026-04-27 11:29 | 27.41952 | 86.66927 | 35838 ft | 483 kts | 101° |
| 2026-04-27 11:30 | 27.41235 | 86.70625 | 36190 ft | 484 kts | 101° |
| 2026-04-27 11:30 | 27.40513 | 86.74330 | 36577 ft | 485 kts | 102° |
| 2026-04-27 11:30 | 27.39789 | 86.78048 | 36850 ft | 487 kts | 102° |
| 2026-04-27 11:30 | 27.39073 | 86.81714 | 36919 ft | 484 kts | 102° |
| 2026-04-27 11:31 | 27.37634 | 86.89086 | 36929 ft | 482 kts | 102° |
| 2026-04-27 11:31 | 27.36194 | 86.96442 | 36928 ft | 482 kts | 102° |
| 2026-04-27 11:32 | 27.34754 | 87.03763 | 36926 ft | 478 kts | 102° |
| 2026-04-27 11:32 | 27.33313 | 87.11047 | 36912 ft | 477 kts | 102° |
| 2026-04-27 11:33 | 27.31733 | 87.18233 | 36850 ft | 477 kts | 109° |
| 2026-04-27 11:33 | 27.28715 | 87.24842 | 36870 ft | 476 kts | 123° |
| 2026-04-27 11:34 | 27.25223 | 87.31164 | 36875 ft | 476 kts | 123° |
| 2026-04-27 11:34 | 27.21731 | 87.37496 | 36870 ft | 477 kts | 123° |
| 2026-04-27 11:35 | 27.18236 | 87.43841 | 36840 ft | 478 kts | 123° |
| 2026-04-27 11:35 | 27.14767 | 87.50128 | 36812 ft | 477 kts | 123° |
| 2026-04-27 11:36 | 27.11261 | 87.56459 | 36830 ft | 478 kts | 123° |
| 2026-04-27 11:36 | 27.07738 | 87.62799 | 36809 ft | 479 kts | 123° |
| 2026-04-27 11:37 | 27.04213 | 87.69139 | 36807 ft | 479 kts | 123° |
| 2026-04-27 11:37 | 27.00710 | 87.75445 | 36823 ft | 480 kts | 123° |
| 2026-04-27 11:38 | 26.97174 | 87.81798 | 36789 ft | 480 kts | 123° |
| 2026-04-27 11:38 | 26.93632 | 87.88145 | 36814 ft | 480 kts | 124° |
| 2026-04-27 11:39 | 26.90092 | 87.94487 | 36796 ft | 480 kts | 123° |
| 2026-04-27 11:39 | 26.86553 | 88.00816 | 36801 ft | 480 kts | 123° |
| 2026-04-27 11:40 | 26.83024 | 88.07105 | 36608 ft | 482 kts | 124° |
| 2026-04-27 11:40 | 26.81238 | 88.10286 | 36371 ft | 483 kts | 123° |
| 2026-04-27 11:40 | 26.79450 | 88.13467 | 36124 ft | 483 kts | 123° |
| 2026-04-27 11:41 | 26.77658 | 88.16652 | 35877 ft | 483 kts | 123° |
| 2026-04-27 11:41 | 26.75883 | 88.19817 | 35515 ft | 479 kts | 123° |
| 2026-04-27 11:41 | 26.74122 | 88.22986 | 34914 ft | 480 kts | 122° |
| 2026-04-27 11:41 | 26.72580 | 88.26283 | 34315 ft | 479 kts | 110° |
| 2026-04-27 11:42 | 26.71707 | 88.29810 | 33721 ft | 475 kts | 96° |
| 2026-04-27 11:42 | 26.71511 | 88.32280 | 33290 ft | 471 kts | 87° |
| 2026-04-27 11:42 | 26.72030 | 88.37025 | 32621 ft | 458 kts | 70° |
| 2026-04-27 11:42 | 26.73136 | 88.40319 | 32104 ft | 447 kts | 58° |
| 2026-04-27 11:43 | 26.74688 | 88.43289 | 31632 ft | 441 kts | 53° |
| 2026-04-27 11:43 | 26.76285 | 88.46203 | 31144 ft | 438 kts | 53° |
| 2026-04-27 11:43 | 26.77337 | 88.48123 | 30835 ft | 436 kts | 53° |
| 2026-04-27 11:43 | 26.79448 | 88.51979 | 30191 ft | 432 kts | 53° |
| 2026-04-27 11:44 | 26.80482 | 88.53869 | 29881 ft | 430 kts | 53° |
| 2026-04-27 11:44 | 26.82039 | 88.56714 | 29383 ft | 426 kts | 53° |
| 2026-04-27 11:44 | 26.84073 | 88.60436 | 28801 ft | 420 kts | 53° |
| 2026-04-27 11:44 | 26.85589 | 88.63216 | 28377 ft | 416 kts | 53° |
| 2026-04-27 11:45 | 26.87088 | 88.65965 | 27999 ft | 412 kts | 54° |
| 2026-04-27 11:45 | 26.88077 | 88.67780 | 27707 ft | 410 kts | 54° |
| 2026-04-27 11:45 | 26.89554 | 88.70496 | 27274 ft | 408 kts | 54° |
| 2026-04-27 11:45 | 26.91028 | 88.73208 | 26839 ft | 405 kts | 54° |
| 2026-04-27 11:46 | 26.92490 | 88.75900 | 26394 ft | 404 kts | 54° |
| 2026-04-27 11:46 | 26.93949 | 88.78577 | 25950 ft | 402 kts | 54° |
| 2026-04-27 11:46 | 26.95408 | 88.81253 | 25491 ft | 401 kts | 54° |
| 2026-04-27 11:46 | 26.96851 | 88.83927 | 25013 ft | 401 kts | 56° |
| 2026-04-27 11:47 | 26.97980 | 88.86804 | 24533 ft | 407 kts | 68° |
| 2026-04-27 11:47 | 26.98588 | 88.89930 | 24004 ft | 414 kts | 79° |
| 2026-04-27 11:47 | 26.98920 | 88.93123 | 23592 ft | 409 kts | 79° |
| 2026-04-27 11:47 | 26.99247 | 88.96284 | 22961 ft | 407 kts | 79° |
| 2026-04-27 11:48 | 26.99566 | 88.99372 | 22437 ft | 401 kts | 79° |
| 2026-04-27 11:48 | 26.99886 | 89.02444 | 21952 ft | 394 kts | 79° |
| 2026-04-27 11:48 | 27.00204 | 89.05466 | 21474 ft | 387 kts | 79° |
| 2026-04-27 11:48 | 27.00518 | 89.08434 | 21013 ft | 381 kts | 79° |
| 2026-04-27 11:49 | 27.00828 | 89.11379 | 20550 ft | 379 kts | 79° |
| 2026-04-27 11:49 | 27.01136 | 89.14308 | 20081 ft | 377 kts | 80° |
| 2026-04-27 11:49 | 27.01436 | 89.17214 | 19639 ft | 375 kts | 80° |
| 2026-04-27 11:49 | 27.01735 | 89.20105 | 19181 ft | 370 kts | 80° |
| 2026-04-27 11:50 | 27.02026 | 89.22919 | 18754 ft | 368 kts | 80° |
| 2026-04-27 11:50 | 27.02324 | 89.25776 | 18312 ft | 370 kts | 80° |
| 2026-04-27 11:50 | 27.02624 | 89.28645 | 17864 ft | 371 kts | 81° |
| 2026-04-27 11:50 | 27.02924 | 89.31516 | 17415 ft | 370 kts | 81° |
| 2026-04-27 11:51 | 27.03218 | 89.34376 | 16968 ft | 366 kts | 81° |
| 2026-04-27 11:51 | 27.03503 | 89.37178 | 16628 ft | 356 kts | 81° |
| 2026-04-27 11:51 | 27.04030 | 89.42415 | 16389 ft | 322 kts | 81° |
| 2026-04-27 11:52 | 27.04279 | 89.44866 | 16249 ft | 310 kts | 81° |
| 2026-04-27 11:52 | 27.04520 | 89.47222 | 16110 ft | 298 kts | 81° |
| 2026-04-27 11:52 | 27.04857 | 89.49412 | 15973 ft | 278 kts | 64° |
| 2026-04-27 11:52 | 27.05944 | 89.51024 | 15886 ft | 247 kts | 26° |
| 2026-04-27 11:53 | 27.07486 | 89.51528 | 15727 ft | 222 kts | 355° |
| 2026-04-27 11:53 | 27.08965 | 89.51435 | 15545 ft | 206 kts | 353° |
| 2026-04-27 11:53 | 27.10346 | 89.51363 | 15417 ft | 192 kts | 352° |
| 2026-04-27 11:53 | 27.11651 | 89.51302 | 15313 ft | 185 kts | 352° |
| 2026-04-27 11:54 | 27.12928 | 89.51243 | 15191 ft | 183 kts | 352° |
| 2026-04-27 11:54 | 27.14202 | 89.51186 | 15068 ft | 183 kts | 352° |
| 2026-04-27 11:54 | 27.15477 | 89.51128 | 14941 ft | 184 kts | 353° |
| 2026-04-27 11:54 | 27.16756 | 89.51072 | 14809 ft | 184 kts | 352° |
| 2026-04-27 11:55 | 27.18020 | 89.51020 | 14699 ft | 184 kts | 354° |
| 2026-04-27 11:55 | 27.19289 | 89.50966 | 14565 ft | 182 kts | 355° |
| 2026-04-27 11:55 | 27.20552 | 89.50913 | 14443 ft | 181 kts | 355° |
| 2026-04-27 11:55 | 27.21810 | 89.50860 | 14326 ft | 181 kts | 355° |
| 2026-04-27 11:56 | 27.23073 | 89.50807 | 14195 ft | 182 kts | 355° |
| 2026-04-27 11:56 | 27.24338 | 89.50753 | 14074 ft | 182 kts | 355° |
| 2026-04-27 11:56 | 27.25600 | 89.50699 | 13950 ft | 182 kts | 354° |
| 2026-04-27 11:56 | 27.26870 | 89.50643 | 13836 ft | 183 kts | 355° |
| 2026-04-27 11:57 | 27.28136 | 89.50589 | 13699 ft | 182 kts | 355° |
| 2026-04-27 11:57 | 27.29379 | 89.50520 | 13563 ft | 181 kts | 350° |
| 2026-04-27 11:57 | 27.30553 | 89.50074 | 13405 ft | 179 kts | 329° |
| 2026-04-27 11:57 | 27.31576 | 89.49262 | 13124 ft | 181 kts | 322° |
| 2026-04-27 11:58 | 27.32594 | 89.48432 | 12858 ft | 180 kts | 322° |
| 2026-04-27 11:58 | 27.33606 | 89.47613 | 12603 ft | 179 kts | 323° |
| 2026-04-27 11:58 | 27.34607 | 89.46804 | 12355 ft | 176 kts | 322° |
| 2026-04-27 11:58 | 27.35598 | 89.46000 | 12108 ft | 176 kts | 323° |
| 2026-04-27 11:59 | 27.36586 | 89.45199 | 11850 ft | 175 kts | 323° |
| 2026-04-27 11:59 | 27.37564 | 89.44406 | 11620 ft | 176 kts | 323° |
| 2026-04-27 11:59 | 27.38554 | 89.43601 | 11376 ft | 176 kts | 323° |
| 2026-04-27 11:59 | 27.39546 | 89.42795 | 11123 ft | 176 kts | 323° |
| 2026-04-27 12:00 | 27.40494 | 89.41919 | 10873 ft | 176 kts | 307° |
| 2026-04-27 12:00 | 27.41045 | 89.40691 | 10678 ft | 178 kts | 291° |
| 2026-04-27 12:00 | 27.41488 | 89.39371 | 10457 ft | 181 kts | 290° |
| 2026-04-27 12:00 | 27.41923 | 89.38030 | 10177 ft | 186 kts | 290° |
| 2026-04-27 12:01 | 27.42356 | 89.36701 | 9850 ft | 175 kts | 290° |
| 2026-04-27 12:01 | 27.43162 | 89.35772 | 9648 ft | 166 kts | 338° |
| 2026-04-27 12:01 | 27.44250 | 89.35822 | 9259 ft | 156 kts | 28° |
| 2026-04-27 12:01 | 27.44884 | 89.36703 | 8927 ft | 148 kts | 77° |
| 2026-04-27 12:02 | 27.44750 | 89.37817 | 8684 ft | 145 kts | 115° |
| 2026-04-27 12:02 | 27.44366 | 89.38862 | 8384 ft | 144 kts | 111° |
| 2026-04-27 12:02 | 27.43999 | 89.39901 | 8114 ft | 142 kts | 113° |
| 2026-04-27 12:02 | 27.43597 | 89.40914 | 7954 ft | 142 kts | 116° |
| 2026-04-27 12:03 | 27.42811 | 89.41537 | 7777 ft | 144 kts | 169° |
| 2026-04-27 12:03 | 27.41811 | 89.41635 | 7597 ft | 143 kts | 166° |
| 2026-04-27 12:03 | 27.40937 | 89.42085 | 7371 ft | 133 kts | 149° |
| 2026-04-27 12:03 | 27.40317 | 89.42481 | 7341 ft | 72 kts | 150° |
| 2026-04-27 12:04 | 27.39969 | 89.42702 | 7331 ft | 46 kts | 150° |
| 2026-04-27 12:04 | 27.39706 | 89.42868 | 7321 ft | 42 kts | 150° |
| 2026-04-27 12:04 | 27.39514 | 89.42990 | 7317 ft | 22 kts | 150° |
| 2026-04-27 12:04 | 27.39433 | 89.42999 | 7314 ft | 11 kts | 227° |
| 2026-04-27 12:05 | 27.39443 | 89.42928 | 7316 ft | 11 kts | 324° |
| 2026-04-27 12:05 | 27.39515 | 89.42882 | 7319 ft | 13 kts | 330° |
| 2026-04-27 12:05 | 27.39594 | 89.42832 | 7322 ft | 13 kts | 330° |
| 2026-04-27 12:05 | 27.39677 | 89.42779 | 7322 ft | 14 kts | 330° |
| 2026-04-27 12:06 | 27.39762 | 89.42723 | 7327 ft | 14 kts | 330° |
| 2026-04-27 12:06 | 27.39849 | 89.42668 | 7328 ft | 15 kts | 330° |
| 2026-04-27 12:06 | 27.39940 | 89.42611 | 7332 ft | 16 kts | 331° |
| 2026-04-27 12:06 | 27.40042 | 89.42546 | 7335 ft | 17 kts | 330° |
| 2026-04-27 12:07 | 27.40146 | 89.42480 | 7339 ft | 17 kts | 330° |
| 2026-04-27 12:07 | 27.40250 | 89.42414 | 7342 ft | 17 kts | 330° |
| 2026-04-27 12:07 | 27.40352 | 89.42349 | 7346 ft | 17 kts | 330° |
| 2026-04-27 12:07 | 27.40452 | 89.42285 | 7349 ft | 16 kts | 330° |
| 2026-04-27 12:08 | 27.40544 | 89.42227 | 7352 ft | 13 kts | 330° |
| 2026-04-27 12:08 | 27.40619 | 89.42178 | 7355 ft | 11 kts | 330° |
| 2026-04-27 12:08 | 27.40651 | 89.42147 | 7356 ft | 4 kts | 276° |
| 2026-04-27 12:08 | 27.40637 | 89.42116 | 7358 ft | 3 kts | 240° |
| 2026-04-27 12:09 | 27.40630 | 89.42103 | 7358 ft | 0 kts | 240° |